sensor_id;sensor_type;location;lat;lon;timestamp;temperature;humidity
33673;DHT22;20011;51.510;9.942;2024-03-02T00:00:35;9.70;99.90
33673;DHT22;20011;51.510;9.942;2024-03-02T00:03:02;9.80;99.90
33673;DHT22;20011;51.510;9.942;2024-03-02T00:05:29;9.80;99.90
33673;DHT22;20011;51.510;9.942;2024-03-02T00:07:57;9.70;99.90
33673;DHT22;20011;51.510;9.942;2024-03-02T00:10:35;9.70;99.90
33673;DHT22;20011;51.510;9.942;2024-03-02T00:13:04;9.70;99.90
33673;DHT22;20011;51.510;9.942;2024-03-02T00:15:42;9.70;99.90
33673;DHT22;20011;51.510;9.942;2024-03-02T00:18:18;9.70;99.90
33673;DHT22;20011;51.510;9.942;2024-03-02T00:20:45;9.70;99.90
33673;DHT22;20011;51.510;9.942;2024-03-02T00:23:16;9.70;99.90
33673;DHT22;20011;51.510;9.942;2024-03-02T00:25:50;9.70;99.90
33673;DHT22;20011;51.510;9.942;2024-03-02T00:28:21;9.70;99.90
33673;DHT22;20011;51.510;9.942;2024-03-02T00:33:26;9.70;99.90
33673;DHT22;20011;51.510;9.942;2024-03-02T00:35:54;9.60;99.90
33673;DHT22;20011;51.510;9.942;2024-03-02T00:38:21;9.70;99.90
33673;DHT22;20011;51.510;9.942;2024-03-02T00:40:49;9.70;99.90
33673;DHT22;20011;51.510;9.942;2024-03-02T00:45:58;9.70;99.90
33673;DHT22;20011;51.510;9.942;2024-03-02T00:48:25;9.70;99.90
33673;DHT22;20011;51.510;9.942;2024-03-02T00:50:53;9.70;99.90
33673;DHT22;20011;51.510;9.942;2024-03-02T00:53:23;9.70;99.90
33673;DHT22;20011;51.510;9.942;2024-03-02T00:55:53;9.70;99.90
33673;DHT22;20011;51.510;9.942;2024-03-02T00:58:20;9.70;99.90
33673;DHT22;20011;51.510;9.942;2024-03-02T01:00:47;9.60;99.90
33673;DHT22;20011;51.510;9.942;2024-03-02T01:03:14;9.70;99.90
33673;DHT22;20011;51.510;9.942;2024-03-02T01:05:42;9.70;99.90
33673;DHT22;20011;51.510;9.942;2024-03-02T01:08:10;9.70;99.90
33673;DHT22;20011;51.510;9.942;2024-03-02T01:10:37;9.60;99.90
33673;DHT22;20011;51.510;9.942;2024-03-02T01:13:04;9.70;99.90
33673;DHT22;20011;51.510;9.942;2024-03-02T01:15:31;9.70;99.90
33673;DHT22;20011;51.510;9.942;2024-03-02T01:17:58;9.70;99.90
33673;DHT22;20011;51.510;9.942;2024-03-02T01:20:24;9.60;99.90
33673;DHT22;20011;51.510;9.942;2024-03-02T01:22:51;9.60;99.90
33673;DHT22;20011;51.510;9.942;2024-03-02T01:25:19;9.60;99.90
33673;DHT22;20011;51.510;9.942;2024-03-02T01:27:46;9.60;99.90
33673;DHT22;20011;51.510;9.942;2024-03-02T01:30:16;9.60;99.90
33673;DHT22;20011;51.510;9.942;2024-03-02T01:32:43;9.60;99.90
33673;DHT22;20011;51.510;9.942;2024-03-02T01:35:10;9.60;99.90
33673;DHT22;20011;51.510;9.942;2024-03-02T01:37:37;9.60;99.90
33673;DHT22;20011;51.510;9.942;2024-03-02T01:40:05;9.50;99.90
33673;DHT22;20011;51.510;9.942;2024-03-02T01:42:39;9.50;99.90
33673;DHT22;20011;51.510;9.942;2024-03-02T01:45:07;9.50;99.90
33673;DHT22;20011;51.510;9.942;2024-03-02T01:47:35;9.40;99.90
33673;DHT22;20011;51.510;9.942;2024-03-02T01:50:02;9.40;99.90
33673;DHT22;20011;51.510;9.942;2024-03-02T01:52:29;9.40;99.90
33673;DHT22;20011;51.510;9.942;2024-03-02T01:54:56;9.40;99.90
33673;DHT22;20011;51.510;9.942;2024-03-02T01:57:23;9.50;99.90
33673;DHT22;20011;51.510;9.942;2024-03-02T01:59:50;9.50;99.90
33673;DHT22;20011;51.510;9.942;2024-03-02T02:02:17;9.50;99.90
33673;DHT22;20011;51.510;9.942;2024-03-02T02:04:44;9.50;99.90
33673;DHT22;20011;51.510;9.942;2024-03-02T02:07:11;9.50;99.90
33673;DHT22;20011;51.510;9.942;2024-03-02T02:09:42;9.50;99.90
33673;DHT22;20011;51.510;9.942;2024-03-02T02:12:09;9.50;99.90
33673;DHT22;20011;51.510;9.942;2024-03-02T02:14:37;9.50;99.90
33673;DHT22;20011;51.510;9.942;2024-03-02T02:17:04;9.50;99.90
33673;DHT22;20011;51.510;9.942;2024-03-02T02:19:31;9.50;99.90
33673;DHT22;20011;51.510;9.942;2024-03-02T02:21:57;9.60;99.90
33673;DHT22;20011;51.510;9.942;2024-03-02T02:24:24;9.60;99.90
33673;DHT22;20011;51.510;9.942;2024-03-02T02:26:51;9.50;99.90
33673;DHT22;20011;51.510;9.942;2024-03-02T02:29:18;9.60;99.90
33673;DHT22;20011;51.510;9.942;2024-03-02T02:31:45;9.60;99.90
33673;DHT22;20011;51.510;9.942;2024-03-02T02:34:14;9.60;99.90
33673;DHT22;20011;51.510;9.942;2024-03-02T02:36:41;9.60;99.90
33673;DHT22;20011;51.510;9.942;2024-03-02T02:39:13;9.70;99.90
33673;DHT22;20011;51.510;9.942;2024-03-02T02:41:41;9.60;99.90
33673;DHT22;20011;51.510;9.942;2024-03-02T02:44:08;9.60;99.90
33673;DHT22;20011;51.510;9.942;2024-03-02T02:46:35;9.70;99.90
33673;DHT22;20011;51.510;9.942;2024-03-02T02:49:02;9.70;99.90
33673;DHT22;20011;51.510;9.942;2024-03-02T02:51:29;9.60;99.90
33673;DHT22;20011;51.510;9.942;2024-03-02T02:53:56;9.60;99.90
33673;DHT22;20011;51.510;9.942;2024-03-02T02:56:23;9.60;99.90
33673;DHT22;20011;51.510;9.942;2024-03-02T02:58:50;9.60;99.90
33673;DHT22;20011;51.510;9.942;2024-03-02T03:01:17;9.60;99.90
33673;DHT22;20011;51.510;9.942;2024-03-02T03:03:45;9.70;99.90
33673;DHT22;20011;51.510;9.942;2024-03-02T03:06:12;9.70;99.90
33673;DHT22;20011;51.510;9.942;2024-03-02T03:08:39;9.70;99.90
33673;DHT22;20011;51.510;9.942;2024-03-02T03:11:06;9.60;99.90
33673;DHT22;20011;51.510;9.942;2024-03-02T03:13:34;9.70;99.90
33673;DHT22;20011;51.510;9.942;2024-03-02T03:16:01;9.70;99.90
33673;DHT22;20011;51.510;9.942;2024-03-02T03:18:28;9.70;99.90
33673;DHT22;20011;51.510;9.942;2024-03-02T03:20:55;9.70;99.90
33673;DHT22;20011;51.510;9.942;2024-03-02T03:23:22;9.60;99.90
33673;DHT22;20011;51.510;9.942;2024-03-02T03:25:49;9.60;99.90
33673;DHT22;20011;51.510;9.942;2024-03-02T03:28:16;9.60;99.90
33673;DHT22;20011;51.510;9.942;2024-03-02T03:30:43;9.70;99.90
33673;DHT22;20011;51.510;9.942;2024-03-02T03:33:10;9.60;99.90
33673;DHT22;20011;51.510;9.942;2024-03-02T03:35:36;9.70;99.90
33673;DHT22;20011;51.510;9.942;2024-03-02T03:38:04;9.70;99.90
33673;DHT22;20011;51.510;9.942;2024-03-02T03:40:31;9.70;99.90
33673;DHT22;20011;51.510;9.942;2024-03-02T03:42:58;9.60;99.90
33673;DHT22;20011;51.510;9.942;2024-03-02T03:45:26;9.70;99.90
33673;DHT22;20011;51.510;9.942;2024-03-02T03:47:54;9.60;99.90
33673;DHT22;20011;51.510;9.942;2024-03-02T03:50:21;9.60;99.90
33673;DHT22;20011;51.510;9.942;2024-03-02T03:52:48;9.50;99.90
33673;DHT22;20011;51.510;9.942;2024-03-02T03:55:15;9.50;99.90
33673;DHT22;20011;51.510;9.942;2024-03-02T03:57:42;9.50;99.90
33673;DHT22;20011;51.510;9.942;2024-03-02T04:00:09;9.50;99.90
33673;DHT22;20011;51.510;9.942;2024-03-02T04:02:40;9.40;99.90
33673;DHT22;20011;51.510;9.942;2024-03-02T04:05:07;9.40;99.90
33673;DHT22;20011;51.510;9.942;2024-03-02T04:07:38;9.40;99.90
33673;DHT22;20011;51.510;9.942;2024-03-02T04:10:08;9.40;99.90
33673;DHT22;20011;51.510;9.942;2024-03-02T04:12:36;9.30;99.90
33673;DHT22;20011;51.510;9.942;2024-03-02T04:15:05;9.40;99.90
33673;DHT22;20011;51.510;9.942;2024-03-02T04:17:33;9.40;99.90
33673;DHT22;20011;51.510;9.942;2024-03-02T04:20:01;9.40;99.90
33673;DHT22;20011;51.510;9.942;2024-03-02T04:22:28;9.40;99.90
33673;DHT22;20011;51.510;9.942;2024-03-02T04:24:55;9.40;99.90
33673;DHT22;20011;51.510;9.942;2024-03-02T04:27:22;9.40;99.90
33673;DHT22;20011;51.510;9.942;2024-03-02T04:29:49;9.40;99.90
33673;DHT22;20011;51.510;9.942;2024-03-02T04:32:16;9.40;99.90
33673;DHT22;20011;51.510;9.942;2024-03-02T04:34:44;9.30;99.90
33673;DHT22;20011;51.510;9.942;2024-03-02T04:37:11;9.30;99.90
33673;DHT22;20011;51.510;9.942;2024-03-02T04:39:39;9.20;99.90
33673;DHT22;20011;51.510;9.942;2024-03-02T04:42:06;9.20;99.90
33673;DHT22;20011;51.510;9.942;2024-03-02T04:44:33;9.10;99.90
33673;DHT22;20011;51.510;9.942;2024-03-02T04:47:00;9.00;99.90
33673;DHT22;20011;51.510;9.942;2024-03-02T04:49:27;8.90;99.90
33673;DHT22;20011;51.510;9.942;2024-03-02T04:51:54;8.90;99.90
33673;DHT22;20011;51.510;9.942;2024-03-02T04:54:21;8.90;99.90
33673;DHT22;20011;51.510;9.942;2024-03-02T04:56:48;8.90;99.90
33673;DHT22;20011;51.510;9.942;2024-03-02T04:59:18;8.90;99.90
33673;DHT22;20011;51.510;9.942;2024-03-02T05:01:46;8.90;99.90
33673;DHT22;20011;51.510;9.942;2024-03-02T05:04:14;8.90;99.90
33673;DHT22;20011;51.510;9.942;2024-03-02T05:06:41;8.90;99.90
33673;DHT22;20011;51.510;9.942;2024-03-02T05:09:09;8.90;99.90
33673;DHT22;20011;51.510;9.942;2024-03-02T05:11:36;8.90;99.90
33673;DHT22;20011;51.510;9.942;2024-03-02T05:14:23;8.90;99.90
33673;DHT22;20011;51.510;9.942;2024-03-02T05:16:50;9.00;99.90
33673;DHT22;20011;51.510;9.942;2024-03-02T05:19:16;8.90;99.90
33673;DHT22;20011;51.510;9.942;2024-03-02T05:21:43;8.90;99.90
33673;DHT22;20011;51.510;9.942;2024-03-02T05:24:10;8.80;99.90
33673;DHT22;20011;51.510;9.942;2024-03-02T05:26:37;8.80;99.90
33673;DHT22;20011;51.510;9.942;2024-03-02T05:29:04;8.80;99.90
33673;DHT22;20011;51.510;9.942;2024-03-02T05:31:31;8.90;99.90
33673;DHT22;20011;51.510;9.942;2024-03-02T05:33:58;8.90;99.90
33673;DHT22;20011;51.510;9.942;2024-03-02T05:36:26;8.90;99.90
33673;DHT22;20011;51.510;9.942;2024-03-02T05:38:53;8.90;99.90
33673;DHT22;20011;51.510;9.942;2024-03-02T05:41:20;8.90;99.90
33673;DHT22;20011;51.510;9.942;2024-03-02T05:43:47;8.90;99.90
33673;DHT22;20011;51.510;9.942;2024-03-02T05:46:14;9.00;99.90
33673;DHT22;20011;51.510;9.942;2024-03-02T05:48:41;8.90;99.90
33673;DHT22;20011;51.510;9.942;2024-03-02T05:51:08;9.00;99.90
33673;DHT22;20011;51.510;9.942;2024-03-02T05:53:35;9.00;99.90
33673;DHT22;20011;51.510;9.942;2024-03-02T05:56:05;9.00;99.90
33673;DHT22;20011;51.510;9.942;2024-03-02T05:58:32;9.00;99.90
33673;DHT22;20011;51.510;9.942;2024-03-02T06:01:18;9.00;99.90
33673;DHT22;20011;51.510;9.942;2024-03-02T06:03:45;9.00;99.90
33673;DHT22;20011;51.510;9.942;2024-03-02T06:06:12;9.00;99.90
33673;DHT22;20011;51.510;9.942;2024-03-02T06:08:39;9.00;99.90
33673;DHT22;20011;51.510;9.942;2024-03-02T06:11:06;9.00;99.90
33673;DHT22;20011;51.510;9.942;2024-03-02T06:13:33;9.00;99.90
33673;DHT22;20011;51.510;9.942;2024-03-02T06:16:00;9.10;99.90
33673;DHT22;20011;51.510;9.942;2024-03-02T06:18:27;9.10;99.90
33673;DHT22;20011;51.510;9.942;2024-03-02T06:20:54;9.00;99.90
33673;DHT22;20011;51.510;9.942;2024-03-02T06:23:21;9.10;99.90
33673;DHT22;20011;51.510;9.942;2024-03-02T06:25:48;9.10;99.90
33673;DHT22;20011;51.510;9.942;2024-03-02T06:28:15;9.10;99.90
33673;DHT22;20011;51.510;9.942;2024-03-02T06:30:42;9.00;99.90
33673;DHT22;20011;51.510;9.942;2024-03-02T06:33:10;9.10;99.90
33673;DHT22;20011;51.510;9.942;2024-03-02T06:35:37;9.10;99.90
33673;DHT22;20011;51.510;9.942;2024-03-02T06:38:04;9.10;99.90
33673;DHT22;20011;51.510;9.942;2024-03-02T06:40:31;9.10;99.90
33673;DHT22;20011;51.510;9.942;2024-03-02T06:42:58;9.20;99.90
33673;DHT22;20011;51.510;9.942;2024-03-02T06:45:25;9.10;99.90
33673;DHT22;20011;51.510;9.942;2024-03-02T06:47:52;9.00;99.90
33673;DHT22;20011;51.510;9.942;2024-03-02T06:50:19;9.10;99.90
33673;DHT22;20011;51.510;9.942;2024-03-02T06:52:46;9.10;99.90
33673;DHT22;20011;51.510;9.942;2024-03-02T06:55:13;9.10;99.90
33673;DHT22;20011;51.510;9.942;2024-03-02T06:57:40;9.10;99.90
33673;DHT22;20011;51.510;9.942;2024-03-02T07:00:07;9.10;99.90
33673;DHT22;20011;51.510;9.942;2024-03-02T07:02:35;9.00;99.90
33673;DHT22;20011;51.510;9.942;2024-03-02T07:05:03;9.00;99.90
33673;DHT22;20011;51.510;9.942;2024-03-02T07:07:30;9.10;99.90
33673;DHT22;20011;51.510;9.942;2024-03-02T07:09:58;9.10;99.90
33673;DHT22;20011;51.510;9.942;2024-03-02T07:12:26;9.10;99.90
33673;DHT22;20011;51.510;9.942;2024-03-02T07:14:53;8.90;99.90
33673;DHT22;20011;51.510;9.942;2024-03-02T07:17:24;9.00;99.90
33673;DHT22;20011;51.510;9.942;2024-03-02T07:19:51;8.90;99.90
33673;DHT22;20011;51.510;9.942;2024-03-02T07:22:19;8.90;99.90
33673;DHT22;20011;51.510;9.942;2024-03-02T07:24:46;8.80;99.90
33673;DHT22;20011;51.510;9.942;2024-03-02T07:27:13;8.70;99.90
33673;DHT22;20011;51.510;9.942;2024-03-02T07:29:41;8.70;99.90
33673;DHT22;20011;51.510;9.942;2024-03-02T07:32:09;8.60;99.90
33673;DHT22;20011;51.510;9.942;2024-03-02T07:34:36;8.60;99.90
33673;DHT22;20011;51.510;9.942;2024-03-02T07:37:04;8.70;99.90
33673;DHT22;20011;51.510;9.942;2024-03-02T07:39:32;8.70;99.90
33673;DHT22;20011;51.510;9.942;2024-03-02T07:42:00;8.70;99.90
33673;DHT22;20011;51.510;9.942;2024-03-02T07:44:27;8.60;99.90
33673;DHT22;20011;51.510;9.942;2024-03-02T07:46:54;8.70;99.90
33673;DHT22;20011;51.510;9.942;2024-03-02T07:49:21;8.60;99.90
33673;DHT22;20011;51.510;9.942;2024-03-02T07:51:48;8.70;99.90
33673;DHT22;20011;51.510;9.942;2024-03-02T07:54:15;8.70;99.90
33673;DHT22;20011;51.510;9.942;2024-03-02T07:56:42;8.70;99.90
33673;DHT22;20011;51.510;9.942;2024-03-02T07:59:09;8.70;99.90
33673;DHT22;20011;51.510;9.942;2024-03-02T08:01:35;8.80;99.90
33673;DHT22;20011;51.510;9.942;2024-03-02T08:04:03;8.80;99.90
33673;DHT22;20011;51.510;9.942;2024-03-02T08:06:30;8.80;99.90
33673;DHT22;20011;51.510;9.942;2024-03-02T08:08:59;8.80;99.90
33673;DHT22;20011;51.510;9.942;2024-03-02T08:11:26;8.80;99.90
33673;DHT22;20011;51.510;9.942;2024-03-02T08:13:57;8.90;99.90
33673;DHT22;20011;51.510;9.942;2024-03-02T08:16:24;8.90;99.90
33673;DHT22;20011;51.510;9.942;2024-03-02T08:18:52;8.90;99.90
33673;DHT22;20011;51.510;9.942;2024-03-02T08:21:20;9.00;99.90
33673;DHT22;20011;51.510;9.942;2024-03-02T08:23:47;9.10;99.90
33673;DHT22;20011;51.510;9.942;2024-03-02T08:26:14;9.20;99.90
33673;DHT22;20011;51.510;9.942;2024-03-02T08:28:41;9.20;99.90
33673;DHT22;20011;51.510;9.942;2024-03-02T08:31:08;9.30;99.90
33673;DHT22;20011;51.510;9.942;2024-03-02T08:33:35;9.30;99.90
33673;DHT22;20011;51.510;9.942;2024-03-02T08:36:05;9.40;99.90
33673;DHT22;20011;51.510;9.942;2024-03-02T08:38:32;9.50;99.90
33673;DHT22;20011;51.510;9.942;2024-03-02T08:40:59;9.50;99.90
33673;DHT22;20011;51.510;9.942;2024-03-02T08:43:26;9.60;99.90
33673;DHT22;20011;51.510;9.942;2024-03-02T08:45:53;9.60;99.90
33673;DHT22;20011;51.510;9.942;2024-03-02T08:48:21;9.70;99.90
33673;DHT22;20011;51.510;9.942;2024-03-02T08:50:49;9.70;99.90
33673;DHT22;20011;51.510;9.942;2024-03-02T08:53:16;9.80;99.90
33673;DHT22;20011;51.510;9.942;2024-03-02T08:55:46;9.70;99.90
33673;DHT22;20011;51.510;9.942;2024-03-02T08:58:13;9.90;99.90
33673;DHT22;20011;51.510;9.942;2024-03-02T09:00:40;9.90;99.90
33673;DHT22;20011;51.510;9.942;2024-03-02T09:03:08;9.90;99.90
33673;DHT22;20011;51.510;9.942;2024-03-02T09:05:35;10.00;99.90
33673;DHT22;20011;51.510;9.942;2024-03-02T09:08:02;10.10;99.90
33673;DHT22;20011;51.510;9.942;2024-03-02T09:10:30;10.10;99.90
33673;DHT22;20011;51.510;9.942;2024-03-02T09:12:57;10.10;99.90
33673;DHT22;20011;51.510;9.942;2024-03-02T09:15:25;10.20;99.90
33673;DHT22;20011;51.510;9.942;2024-03-02T09:17:52;10.20;99.90
33673;DHT22;20011;51.510;9.942;2024-03-02T09:20:19;10.20;99.90
33673;DHT22;20011;51.510;9.942;2024-03-02T09:22:46;10.20;99.90
33673;DHT22;20011;51.510;9.942;2024-03-02T09:25:14;10.30;99.90
33673;DHT22;20011;51.510;9.942;2024-03-02T09:27:43;10.30;99.90
33673;DHT22;20011;51.510;9.942;2024-03-02T09:30:10;10.40;99.90
33673;DHT22;20011;51.510;9.942;2024-03-02T09:32:37;10.30;99.90
33673;DHT22;20011;51.510;9.942;2024-03-02T09:35:05;10.40;99.90
33673;DHT22;20011;51.510;9.942;2024-03-02T09:37:32;10.40;99.90
33673;DHT22;20011;51.510;9.942;2024-03-02T09:40:00;10.50;99.90
33673;DHT22;20011;51.510;9.942;2024-03-02T09:42:27;10.50;99.90
33673;DHT22;20011;51.510;9.942;2024-03-02T09:44:55;10.50;99.90
33673;DHT22;20011;51.510;9.942;2024-03-02T09:47:23;10.50;99.90
33673;DHT22;20011;51.510;9.942;2024-03-02T09:49:50;10.60;99.90
33673;DHT22;20011;51.510;9.942;2024-03-02T09:52:17;10.60;99.90
33673;DHT22;20011;51.510;9.942;2024-03-02T09:54:44;10.60;99.90
33673;DHT22;20011;51.510;9.942;2024-03-02T09:57:14;10.60;99.90
33673;DHT22;20011;51.510;9.942;2024-03-02T09:59:41;10.60;99.90
33673;DHT22;20011;51.510;9.942;2024-03-02T10:02:08;10.70;99.90
33673;DHT22;20011;51.510;9.942;2024-03-02T10:04:35;10.70;99.90
33673;DHT22;20011;51.510;9.942;2024-03-02T10:07:16;10.70;99.90
33673;DHT22;20011;51.510;9.942;2024-03-02T10:09:48;10.80;99.90
33673;DHT22;20011;51.510;9.942;2024-03-02T10:12:17;10.80;99.90
33673;DHT22;20011;51.510;9.942;2024-03-02T10:14:44;10.80;99.90
33673;DHT22;20011;51.510;9.942;2024-03-02T10:17:13;10.80;99.90
33673;DHT22;20011;51.510;9.942;2024-03-02T10:19:40;11.00;99.90
33673;DHT22;20011;51.510;9.942;2024-03-02T10:22:08;11.00;99.90
33673;DHT22;20011;51.510;9.942;2024-03-02T10:24:38;11.00;99.90
33673;DHT22;20011;51.510;9.942;2024-03-02T10:27:10;11.00;99.90
33673;DHT22;20011;51.510;9.942;2024-03-02T10:29:38;11.10;99.90
33673;DHT22;20011;51.510;9.942;2024-03-02T10:32:10;11.00;99.90
33673;DHT22;20011;51.510;9.942;2024-03-02T10:34:42;11.10;99.90
33673;DHT22;20011;51.510;9.942;2024-03-02T10:37:11;11.10;99.90
33673;DHT22;20011;51.510;9.942;2024-03-02T10:39:39;11.20;99.90
33673;DHT22;20011;51.510;9.942;2024-03-02T10:42:08;11.20;99.90
33673;DHT22;20011;51.510;9.942;2024-03-02T10:44:35;11.30;99.90
33673;DHT22;20011;51.510;9.942;2024-03-02T10:47:04;11.20;99.90
33673;DHT22;20011;51.510;9.942;2024-03-02T10:49:32;11.20;99.90
33673;DHT22;20011;51.510;9.942;2024-03-02T10:52:00;11.30;99.90
33673;DHT22;20011;51.510;9.942;2024-03-02T10:54:28;11.30;99.90
33673;DHT22;20011;51.510;9.942;2024-03-02T10:57:04;11.20;99.90
33673;DHT22;20011;51.510;9.942;2024-03-02T10:59:37;11.40;99.90
33673;DHT22;20011;51.510;9.942;2024-03-02T11:02:12;11.40;99.90
33673;DHT22;20011;51.510;9.942;2024-03-02T11:04:41;11.50;99.90
33673;DHT22;20011;51.510;9.942;2024-03-02T11:07:10;11.40;99.90
33673;DHT22;20011;51.510;9.942;2024-03-02T11:09:41;11.50;99.90
33673;DHT22;20011;51.510;9.942;2024-03-02T11:12:23;11.50;99.90
33673;DHT22;20011;51.510;9.942;2024-03-02T11:14:51;11.50;99.90
33673;DHT22;20011;51.510;9.942;2024-03-02T11:17:21;11.50;99.90
33673;DHT22;20011;51.510;9.942;2024-03-02T11:19:50;11.50;99.90
33673;DHT22;20011;51.510;9.942;2024-03-02T11:22:17;11.70;99.90
33673;DHT22;20011;51.510;9.942;2024-03-02T11:24:49;11.60;99.90
33673;DHT22;20011;51.510;9.942;2024-03-02T11:33:06;11.70;99.90
33673;DHT22;20011;51.510;9.942;2024-03-02T11:35:42;11.80;99.90
33673;DHT22;20011;51.510;9.942;2024-03-02T11:38:10;11.80;99.90
33673;DHT22;20011;51.510;9.942;2024-03-02T11:40:39;11.80;99.90
33673;DHT22;20011;51.510;9.942;2024-03-02T11:43:06;11.90;99.90
33673;DHT22;20011;51.510;9.942;2024-03-02T11:45:36;11.90;99.90
33673;DHT22;20011;51.510;9.942;2024-03-02T11:48:08;11.90;99.90
33673;DHT22;20011;51.510;9.942;2024-03-02T11:50:51;11.90;99.90
33673;DHT22;20011;51.510;9.942;2024-03-02T11:53:20;11.90;99.90
33673;DHT22;20011;51.510;9.942;2024-03-02T11:55:47;11.80;99.90
33673;DHT22;20011;51.510;9.942;2024-03-02T11:58:16;11.90;99.90
33673;DHT22;20011;51.510;9.942;2024-03-02T12:00:52;11.80;99.90
33673;DHT22;20011;51.510;9.942;2024-03-02T12:03:21;11.80;99.90
33673;DHT22;20011;51.510;9.942;2024-03-02T12:05:50;11.90;99.90
33673;DHT22;20011;51.510;9.942;2024-03-02T12:08:18;11.90;99.90
33673;DHT22;20011;51.510;9.942;2024-03-02T12:10:59;11.90;99.90
33673;DHT22;20011;51.510;9.942;2024-03-02T12:13:27;11.90;99.90
33673;DHT22;20011;51.510;9.942;2024-03-02T12:15:55;11.90;99.90
33673;DHT22;20011;51.510;9.942;2024-03-02T12:18:25;11.90;99.90
33673;DHT22;20011;51.510;9.942;2024-03-02T12:20:53;11.90;99.90
33673;DHT22;20011;51.510;9.942;2024-03-02T12:23:24;12.00;99.90
33673;DHT22;20011;51.510;9.942;2024-03-02T12:25:52;12.00;99.90
33673;DHT22;20011;51.510;9.942;2024-03-02T12:28:19;12.10;99.90
33673;DHT22;20011;51.510;9.942;2024-03-02T12:30:46;12.10;99.90
33673;DHT22;20011;51.510;9.942;2024-03-02T12:33:15;12.20;99.90
33673;DHT22;20011;51.510;9.942;2024-03-02T12:35:42;12.30;99.90
33673;DHT22;20011;51.510;9.942;2024-03-02T12:38:09;12.30;99.90
33673;DHT22;20011;51.510;9.942;2024-03-02T12:40:37;12.30;99.90
33673;DHT22;20011;51.510;9.942;2024-03-02T12:43:05;12.40;99.90
33673;DHT22;20011;51.510;9.942;2024-03-02T12:45:34;12.40;99.90
33673;DHT22;20011;51.510;9.942;2024-03-02T12:48:02;12.50;99.90
33673;DHT22;20011;51.510;9.942;2024-03-02T12:50:30;12.60;99.90
33673;DHT22;20011;51.510;9.942;2024-03-02T12:52:58;12.60;99.90
33673;DHT22;20011;51.510;9.942;2024-03-02T12:55:25;12.60;99.90
33673;DHT22;20011;51.510;9.942;2024-03-02T12:57:52;12.70;99.90
33673;DHT22;20011;51.510;9.942;2024-03-02T13:00:21;12.70;99.90
33673;DHT22;20011;51.510;9.942;2024-03-02T13:02:49;12.60;99.90
33673;DHT22;20011;51.510;9.942;2024-03-02T13:05:18;12.70;99.90
33673;DHT22;20011;51.510;9.942;2024-03-02T13:07:47;12.60;99.90
33673;DHT22;20011;51.510;9.942;2024-03-02T13:10:15;12.60;99.90
33673;DHT22;20011;51.510;9.942;2024-03-02T13:12:42;12.70;99.90
33673;DHT22;20011;51.510;9.942;2024-03-02T13:15:10;12.60;99.90
33673;DHT22;20011;51.510;9.942;2024-03-02T13:17:44;12.60;99.90
33673;DHT22;20011;51.510;9.942;2024-03-02T13:20:13;12.70;99.90
33673;DHT22;20011;51.510;9.942;2024-03-02T13:22:41;12.70;99.90
33673;DHT22;20011;51.510;9.942;2024-03-02T13:25:08;12.70;99.90
33673;DHT22;20011;51.510;9.942;2024-03-02T13:27:37;12.70;99.90
33673;DHT22;20011;51.510;9.942;2024-03-02T13:30:05;12.80;99.90
33673;DHT22;20011;51.510;9.942;2024-03-02T13:32:35;12.70;99.90
33673;DHT22;20011;51.510;9.942;2024-03-02T13:35:03;12.60;99.90
33673;DHT22;20011;51.510;9.942;2024-03-02T13:37:30;12.60;99.90
33673;DHT22;20011;51.510;9.942;2024-03-02T13:39:57;12.60;99.90
33673;DHT22;20011;51.510;9.942;2024-03-02T13:42:24;12.70;99.90
33673;DHT22;20011;51.510;9.942;2024-03-02T13:44:51;12.80;99.90
33673;DHT22;20011;51.510;9.942;2024-03-02T13:47:19;12.80;99.90
33673;DHT22;20011;51.510;9.942;2024-03-02T13:49:45;13.00;99.90
33673;DHT22;20011;51.510;9.942;2024-03-02T13:52:15;13.00;99.90
33673;DHT22;20011;51.510;9.942;2024-03-02T13:54:45;12.90;99.90
33673;DHT22;20011;51.510;9.942;2024-03-02T13:57:13;13.00;99.90
33673;DHT22;20011;51.510;9.942;2024-03-02T13:59:41;12.80;99.90
33673;DHT22;20011;51.510;9.942;2024-03-02T14:02:10;12.80;99.90
33673;DHT22;20011;51.510;9.942;2024-03-02T14:04:37;12.70;99.90
33673;DHT22;20011;51.510;9.942;2024-03-02T14:07:05;12.70;99.90
33673;DHT22;20011;51.510;9.942;2024-03-02T14:09:35;12.70;99.90
33673;DHT22;20011;51.510;9.942;2024-03-02T14:12:04;12.70;99.90
33673;DHT22;20011;51.510;9.942;2024-03-02T14:14:32;12.70;99.90
33673;DHT22;20011;51.510;9.942;2024-03-02T14:17:00;12.70;99.90
33673;DHT22;20011;51.510;9.942;2024-03-02T14:19:30;12.60;99.90
33673;DHT22;20011;51.510;9.942;2024-03-02T14:21:58;12.60;99.90
33673;DHT22;20011;51.510;9.942;2024-03-02T14:24:26;12.60;99.90
33673;DHT22;20011;51.510;9.942;2024-03-02T14:26:55;12.60;99.90
33673;DHT22;20011;51.510;9.942;2024-03-02T14:29:36;12.50;99.90
33673;DHT22;20011;51.510;9.942;2024-03-02T14:32:05;12.50;99.90
33673;DHT22;20011;51.510;9.942;2024-03-02T14:34:32;12.50;99.90
33673;DHT22;20011;51.510;9.942;2024-03-02T14:37:02;12.50;99.90
33673;DHT22;20011;51.510;9.942;2024-03-02T14:39:30;12.50;99.90
33673;DHT22;20011;51.510;9.942;2024-03-02T14:42:01;12.50;99.90
33673;DHT22;20011;51.510;9.942;2024-03-02T14:44:28;12.50;99.90
33673;DHT22;20011;51.510;9.942;2024-03-02T14:46:56;12.60;99.90
33673;DHT22;20011;51.510;9.942;2024-03-02T14:49:26;12.60;99.80
33673;DHT22;20011;51.510;9.942;2024-03-02T14:51:53;12.60;99.30
33673;DHT22;20011;51.510;9.942;2024-03-02T14:54:21;12.60;98.70
33673;DHT22;20011;51.510;9.942;2024-03-02T14:56:48;12.60;98.60
33673;DHT22;20011;51.510;9.942;2024-03-02T14:59:16;12.60;98.20
33673;DHT22;20011;51.510;9.942;2024-03-02T15:01:43;12.70;98.40
33673;DHT22;20011;51.510;9.942;2024-03-02T15:04:10;12.70;98.20
33673;DHT22;20011;51.510;9.942;2024-03-02T15:06:37;12.70;98.00
33673;DHT22;20011;51.510;9.942;2024-03-02T15:09:05;12.70;97.80
33673;DHT22;20011;51.510;9.942;2024-03-02T15:11:32;12.70;98.00
33673;DHT22;20011;51.510;9.942;2024-03-02T15:13:59;12.80;98.50
33673;DHT22;20011;51.510;9.942;2024-03-02T15:16:26;12.80;98.20
33673;DHT22;20011;51.510;9.942;2024-03-02T15:18:55;12.70;98.00
33673;DHT22;20011;51.510;9.942;2024-03-02T15:21:22;12.70;98.00
33673;DHT22;20011;51.510;9.942;2024-03-02T15:23:49;12.70;98.10
33673;DHT22;20011;51.510;9.942;2024-03-02T15:26:16;12.70;98.60
33673;DHT22;20011;51.510;9.942;2024-03-02T15:28:43;12.80;99.30
33673;DHT22;20011;51.510;9.942;2024-03-02T15:31:10;12.80;99.70
33673;DHT22;20011;51.510;9.942;2024-03-02T15:33:37;12.70;99.80
33673;DHT22;20011;51.510;9.942;2024-03-02T15:36:05;12.80;99.90
33673;DHT22;20011;51.510;9.942;2024-03-02T15:38:32;12.70;99.90
33673;DHT22;20011;51.510;9.942;2024-03-02T15:41:04;12.70;99.90
33673;DHT22;20011;51.510;9.942;2024-03-02T15:43:31;12.70;99.90
33673;DHT22;20011;51.510;9.942;2024-03-02T15:45:58;12.70;99.90
33673;DHT22;20011;51.510;9.942;2024-03-02T15:48:28;12.70;99.90
33673;DHT22;20011;51.510;9.942;2024-03-02T15:50:55;12.70;99.90
33673;DHT22;20011;51.510;9.942;2024-03-02T15:53:23;12.60;99.90
33673;DHT22;20011;51.510;9.942;2024-03-02T15:55:50;12.60;99.90